Time;durP1;ratioP1;P1;durP2;ratioP2;P2;SDS_P1;SDS_P2;PMS_P1;PMS_P2;Temp;Humidity;BMP_temperature;BMP_pressure;BME280_temperature;BME280_humidity;BME280_pressure;Samples;Min_cycle;Max_cycle;Signal;HPM_P1;HPM_P2
2022/02/25 00:00:37;;;;;;;17.60;3.92;;;3.10;99.90;;;;;;5052736;28;20021;-54
2022/02/25 00:03:04;;;;;;;20.65;4.50;;;3.10;99.90;;;;;;5048474;28;20360;-59
2022/02/25 00:05:29;;;;;;;16.17;3.80;;;3.10;99.90;;;;;;5047852;28;20013;-57
2022/02/25 00:07:55;;;;;;;13.27;3.60;;;3.10;99.90;;;;;;5051821;28;20497;-54
2022/02/25 00:10:21;;;;;;;16.45;3.97;;;3.10;99.90;;;;;;5052860;28;20115;-56
2022/02/25 00:12:47;;;;;;;16.38;4.18;;;3.10;99.90;;;;;;5033279;28;20123;-59
2022/02/25 00:15:13;;;;;;;17.33;3.55;;;3.10;99.90;;;;;;5043004;28;20025;-56
2022/02/25 00:17:39;;;;;;;19.20;4.70;;;3.20;99.90;;;;;;5051141;28;20079;-56
2022/02/25 00:20:05;;;;;;;28.60;4.35;;;3.20;99.90;;;;;;5052538;28;20025;-55
2022/02/25 00:22:31;;;;;;;24.25;4.45;;;3.20;99.90;;;;;;5051482;28;20067;-54
2022/02/25 00:24:56;;;;;;;13.70;3.70;;;3.30;99.90;;;;;;5052025;28;20060;-56
2022/02/25 00:27:22;;;;;;;18.27;3.90;;;3.30;99.90;;;;;;5051793;28;20103;-56
2022/02/25 00:29:47;;;;;;;18.40;4.97;;;3.30;99.90;;;;;;5051825;28;20040;-56
2022/02/25 00:32:13;;;;;;;19.02;4.10;;;3.20;99.90;;;;;;5052442;28;20021;-56
2022/02/25 00:34:39;;;;;;;18.60;4.40;;;3.20;99.90;;;;;;5033146;28;20041;-59
2022/02/25 00:37:04;;;;;;;15.82;3.65;;;3.20;99.90;;;;;;5051655;28;20483;-59
2022/02/25 00:39:30;;;;;;;27.80;3.85;;;3.20;99.90;;;;;;5042575;28;20032;-56
2022/02/25 00:41:56;;;;;;;18.80;3.80;;;3.20;99.90;;;;;;5043116;28;20115;-55
2022/02/25 00:44:21;;;;;;;26.75;4.50;;;3.20;99.90;;;;;;5051843;28;20061;-57
2022/02/25 00:46:47;;;;;;;17.30;4.25;;;3.20;99.90;;;;;;5050175;28;20120;-57
2022/02/25 00:49:12;;;;;;;25.27;4.15;;;3.10;99.90;;;;;;5051498;28;20158;-58
2022/02/25 00:51:38;;;;;;;22.80;4.10;;;3.10;99.90;;;;;;5050396;28;20491;-55
2022/02/25 00:54:04;;;;;;;25.58;3.67;;;3.10;99.90;;;;;;5043728;28;20028;-53
2022/02/25 00:56:29;;;;;;;28.08;3.60;;;3.10;99.90;;;;;;5031890;28;20024;-57
2022/02/25 00:58:55;;;;;;;27.23;3.80;;;3.10;99.90;;;;;;5049790;28;20132;-56
2022/02/25 01:01:21;;;;;;;23.42;4.57;;;3.10;99.90;;;;;;5051020;28;20545;-55
2022/02/25 01:03:46;;;;;;;24.05;3.80;;;3.10;99.90;;;;;;5043324;28;20025;-54
2022/02/25 01:06:12;;;;;;;19.55;3.60;;;3.10;99.90;;;;;;5051216;28;20487;-57
2022/02/25 01:08:38;;;;;;;22.33;4.15;;;3.10;99.90;;;;;;5031395;28;20120;-55
2022/02/25 01:11:04;;;;;;;17.23;3.22;;;3.10;99.90;;;;;;5051548;28;20096;-58
2022/02/25 01:13:29;;;;;;;23.33;4.50;;;3.10;99.90;;;;;;5049150;28;20032;-58
2022/02/25 01:15:55;;;;;;;15.45;3.60;;;3.10;99.90;;;;;;5046680;28;20045;-60
2022/02/25 01:18:21;;;;;;;17.88;3.47;;;3.10;99.90;;;;;;5045902;28;20055;-57
2022/02/25 01:20:47;;;;;;;15.50;3.22;;;3.10;99.90;;;;;;5048477;28;20040;-57
2022/02/25 01:23:13;;;;;;;18.38;3.30;;;3.10;99.90;;;;;;5046918;28;20050;-54
2022/02/25 01:25:39;;;;;;;29.52;4.15;;;3.10;99.90;;;;;;5049947;28;20035;-58
2022/02/25 01:28:05;;;;;;;19.85;3.15;;;3.10;99.90;;;;;;5051588;28;20025;-54
2022/02/25 01:30:31;;;;;;;13.73;3.45;;;3.10;99.90;;;;;;5049961;28;20029;-54
2022/02/25 01:32:57;;;;;;;24.20;3.58;;;3.10;99.90;;;;;;5051035;28;20084;-55
2022/02/25 01:35:23;;;;;;;25.27;3.47;;;3.10;99.90;;;;;;5049471;28;20116;-58
2022/02/25 01:37:48;;;;;;;14.20;3.50;;;3.10;99.90;;;;;;5050611;28;20139;-57
2022/02/25 01:40:15;;;;;;;25.00;4.38;;;3.10;99.90;;;;;;5050921;28;20021;-56
2022/02/25 01:42:51;;;;;;;21.65;4.22;;;3.10;99.90;;;;;;5048785;28;20493;-56
2022/02/25 01:45:18;;;;;;;25.90;3.67;;;3.10;99.90;;;;;;5050892;28;20572;-56
2022/02/25 01:47:43;;;;;;;23.73;3.92;;;3.10;99.90;;;;;;5041141;28;20038;-55
2022/02/25 01:50:10;;;;;;;24.45;3.45;;;3.10;99.90;;;;;;5051168;28;20048;-57
2022/02/25 01:52:38;;;;;;;17.73;3.53;;;3.00;99.90;;;;;;5041340;28;20052;-57
2022/02/25 01:55:04;;;;;;;19.65;3.47;;;3.00;99.90;;;;;;5042403;28;20079;-57
2022/02/25 01:57:29;;;;;;;24.77;4.15;;;3.00;99.90;;;;;;5040978;28;20053;-58
2022/02/25 01:59:55;;;;;;;26.88;2.90;;;3.00;99.90;;;;;;5050036;28;20110;-57
2022/02/25 02:02:22;;;;;;;20.42;3.40;;;3.00;99.90;;;;;;5039686;28;20032;-59
2022/02/25 02:04:48;;;;;;;22.58;3.70;;;3.00;99.90;;;;;;5050244;28;20350;-59
2022/02/25 02:07:14;;;;;;;24.48;3.70;;;3.00;99.90;;;;;;5041580;28;20082;-59
2022/02/25 02:09:39;;;;;;;20.85;3.47;;;3.10;99.90;;;;;;5050116;28;20471;-58
2022/02/25 02:12:05;;;;;;;20.10;3.33;;;3.10;99.90;;;;;;5051490;28;20025;-57
2022/02/25 02:14:31;;;;;;;21.52;4.03;;;3.10;99.90;;;;;;5051731;28;20044;-56
2022/02/25 02:16:57;;;;;;;18.50;3.25;;;3.10;99.90;;;;;;5046750;28;20032;-56
2022/02/25 02:19:24;;;;;;;18.98;3.78;;;3.10;99.90;;;;;;5047826;28;20054;-58
2022/02/25 02:21:52;;;;;;;25.20;3.50;;;3.10;99.90;;;;;;5031254;28;20024;-55
2022/02/25 02:24:20;;;;;;;21.85;3.15;;;3.10;99.90;;;;;;5046889;28;20442;-59
2022/02/25 02:26:47;;;;;;;12.10;2.50;;;3.10;99.90;;;;;;5048011;28;20063;-56
2022/02/25 02:29:12;;;;;;;21.58;4.00;;;3.20;99.90;;;;;;5043566;28;20521;-59
2022/02/25 02:31:39;;;;;;;32.03;5.32;;;3.20;99.90;;;;;;5049243;28;20060;-59
2022/02/25 02:34:06;;;;;;;17.45;3.63;;;3.20;99.90;;;;;;5045801;28;20341;-56
2022/02/25 02:36:31;;;;;;;24.52;3.53;;;3.20;99.90;;;;;;5044468;28;20032;-55
2022/02/25 02:38:57;;;;;;;24.10;4.15;;;3.20;99.90;;;;;;5040815;28;20033;-58
2022/02/25 02:41:23;;;;;;;22.75;3.67;;;3.20;99.90;;;;;;5048651;28;20107;-57
2022/02/25 02:43:49;;;;;;;21.63;3.22;;;3.20;99.90;;;;;;5041129;28;20161;-59
2022/02/25 02:46:15;;;;;;;19.17;3.58;;;3.30;99.90;;;;;;5048245;28;20454;-59
2022/02/25 02:48:42;;;;;;;22.17;3.53;;;3.20;99.90;;;;;;5031811;28;20083;-59
2022/02/25 02:51:08;;;;;;;27.20;4.43;;;3.30;99.90;;;;;;5047479;28;20137;-59
2022/02/25 02:53:34;;;;;;;23.50;4.10;;;3.30;99.90;;;;;;5042445;28;20022;-58
2022/02/25 02:55:59;;;;;;;20.20;4.03;;;3.30;99.90;;;;;;5048773;28;20086;-58
2022/02/25 02:58:25;;;;;;;21.42;3.47;;;3.30;99.90;;;;;;5033578;28;20036;-57
2022/02/25 03:00:52;;;;;;;23.00;3.95;;;3.30;99.90;;;;;;5031050;28;20029;-56
2022/02/25 03:03:18;;;;;;;23.73;3.25;;;3.30;99.90;;;;;;5048564;28;20033;-57
2022/02/25 03:05:44;;;;;;;24.15;4.22;;;3.30;99.90;;;;;;5047023;28;20025;-58
2022/02/25 03:08:11;;;;;;;20.98;3.80;;;3.30;99.90;;;;;;5042652;28;20032;-58
2022/02/25 03:10:38;;;;;;;17.17;3.42;;;3.30;99.90;;;;;;5048388;28;20437;-57
2022/02/25 03:13:06;;;;;;;28.23;3.67;;;3.30;99.90;;;;;;5041609;28;20116;-56
2022/02/25 03:15:32;;;;;;;30.45;4.03;;;3.30;99.90;;;;;;5047757;28;20040;-56
2022/02/25 03:17:58;;;;;;;20.88;4.30;;;3.30;99.90;;;;;;5049258;28;20643;-57
2022/02/25 03:20:24;;;;;;;21.10;4.55;;;3.30;99.90;;;;;;5047498;28;20028;-56
2022/02/25 03:22:51;;;;;;;17.02;3.13;;;3.40;99.90;;;;;;5048884;28;20232;-53
2022/02/25 03:25:18;;;;;;;23.88;4.25;;;3.40;99.90;;;;;;5048660;28;20051;-57
2022/02/25 03:27:44;;;;;;;21.20;4.32;;;3.40;99.90;;;;;;5048735;28;20032;-52
2022/02/25 03:30:10;;;;;;;20.40;3.40;;;3.40;99.90;;;;;;5049213;28;20056;-54
2022/02/25 03:32:37;;;;;;;22.88;3.50;;;3.40;99.90;;;;;;5040042;28;20048;-58
2022/02/25 03:35:03;;;;;;;18.50;3.55;;;3.40;99.90;;;;;;5029149;28;20044;-55
2022/02/25 03:37:29;;;;;;;24.10;2.75;;;3.30;99.90;;;;;;5045726;28;20040;-55
2022/02/25 03:39:56;;;;;;;17.75;3.53;;;3.40;99.90;;;;;;5049080;28;20458;-53
2022/02/25 03:42:22;;;;;;;14.88;3.15;;;3.40;99.90;;;;;;5039897;28;20021;-54
2022/02/25 03:44:48;;;;;;;23.52;4.07;;;3.40;99.90;;;;;;5048800;28;20441;-54
2022/02/25 03:47:14;;;;;;;16.92;3.20;;;3.40;99.90;;;;;;5047688;28;20037;-57
2022/02/25 03:49:40;;;;;;;23.23;4.00;;;3.40;99.90;;;;;;5048794;28;20033;-58
2022/02/25 03:52:07;;;;;;;16.83;3.05;;;3.40;99.90;;;;;;5047790;28;20330;-58
2022/02/25 03:54:33;;;;;;;23.95;4.10;;;3.40;99.90;;;;;;5047850;28;20029;-58
2022/02/25 03:56:59;;;;;;;11.77;3.47;;;3.40;99.90;;;;;;5047426;28;20036;-58
2022/02/25 03:59:25;;;;;;;24.08;3.97;;;3.40;99.90;;;;;;5030427;28;20068;-58
2022/02/25 04:01:53;;;;;;;31.27;4.63;;;3.40;99.90;;;;;;5047705;28;20033;-59
2022/02/25 04:04:21;;;;;;;21.98;4.15;;;3.40;99.90;;;;;;5048775;28;20025;-57
2022/02/25 04:06:46;;;;;;;16.02;4.20;;;3.40;99.90;;;;;;5042885;28;20022;-57
2022/02/25 04:09:12;;;;;;;21.73;4.03;;;3.40;99.90;;;;;;5048821;28;20041;-57
2022/02/25 04:11:39;;;;;;;14.18;3.78;;;3.40;99.90;;;;;;5047377;28;20490;-55
2022/02/25 04:14:05;;;;;;;18.67;3.80;;;3.40;99.90;;;;;;5049089;28;20033;-55
2022/02/25 04:16:31;;;;;;;16.83;4.10;;;3.40;99.90;;;;;;5039833;28;20097;-57
2022/02/25 04:18:56;;;;;;;23.70;4.18;;;3.40;99.90;;;;;;5048151;28;20667;-55
2022/02/25 04:21:22;;;;;;;15.90;3.58;;;3.40;99.90;;;;;;5026472;28;20078;-55
2022/02/25 04:23:47;;;;;;;18.65;4.13;;;3.40;99.90;;;;;;5046440;28;20111;-56
2022/02/25 04:26:13;;;;;;;18.30;3.50;;;3.30;99.90;;;;;;5042364;28;20503;-56
2022/02/25 04:28:39;;;;;;;24.20;3.22;;;3.30;99.90;;;;;;5045753;28;20033;-55
2022/02/25 04:31:04;;;;;;;24.13;4.05;;;3.30;99.90;;;;;;5047279;28;20170;-55
2022/02/25 04:33:30;;;;;;;17.60;3.65;;;3.30;99.90;;;;;;5051307;28;20040;-56
2022/02/25 04:35:56;;;;;;;20.83;3.83;;;3.30;99.90;;;;;;5047603;28;20148;-57
2022/02/25 04:38:22;;;;;;;21.70;3.90;;;3.30;99.90;;;;;;5046551;28;20036;-57
2022/02/25 04:40:48;;;;;;;24.25;3.15;;;3.40;99.90;;;;;;5050841;28;20025;-56
2022/02/25 04:43:13;;;;;;;14.32;2.85;;;3.40;99.90;;;;;;5052183;28;20032;-52
2022/02/25 04:45:39;;;;;;;12.43;3.47;;;3.40;99.90;;;;;;5049232;28;20138;-55
2022/02/25 04:48:05;;;;;;;16.63;3.50;;;3.40;99.90;;;;;;5044164;28;20025;-53
2022/02/25 04:50:31;;;;;;;16.95;3.00;;;3.40;99.90;;;;;;5050685;28;20068;-55
2022/02/25 04:52:56;;;;;;;21.45;3.97;;;3.40;99.90;;;;;;5039959;28;20073;-56
2022/02/25 04:55:22;;;;;;;19.83;3.38;;;3.40;99.90;;;;;;5043368;28;20032;-56
2022/02/25 04:57:48;;;;;;;20.52;3.28;;;3.40;99.90;;;;;;5048601;28;20086;-54
2022/02/25 05:00:15;;;;;;;18.60;3.80;;;3.40;99.90;;;;;;5052070;28;20497;-58
2022/02/25 05:02:43;;;;;;;21.00;3.83;;;3.30;99.90;;;;;;5051643;28;20111;-52
2022/02/25 05:05:09;;;;;;;22.63;4.30;;;3.30;99.90;;;;;;5051157;28;20112;-56
2022/02/25 05:07:35;;;;;;;24.50;4.30;;;3.20;99.90;;;;;;5048873;28;20032;-56
2022/02/25 05:10:03;;;;;;;14.57;3.60;;;3.30;99.90;;;;;;5043773;28;20047;-56
2022/02/25 05:12:28;;;;;;;33.35;4.55;;;3.20;99.90;;;;;;5032781;28;20203;-58
2022/02/25 05:20:26;;;;;;;14.93;3.28;;;3.40;99.90;;;;;;5046461;28;20027;-60
2022/02/25 05:22:57;;;;;;;14.52;3.47;;;3.40;99.90;;;;;;5045327;28;20499;-60
2022/02/25 05:25:23;;;;;;;18.35;3.92;;;3.50;99.90;;;;;;5048027;28;20021;-55
2022/02/25 05:27:50;;;;;;;27.30;4.05;;;3.60;99.90;;;;;;5050112;28;20029;-53
2022/02/25 05:30:17;;;;;;;20.88;3.50;;;3.60;99.90;;;;;;5050588;28;20025;-54
2022/02/25 05:32:43;;;;;;;17.80;4.10;;;3.70;99.90;;;;;;5040485;28;20041;-53
2022/02/25 05:35:09;;;;;;;22.63;3.80;;;3.60;99.90;;;;;;5049371;28;20051;-52
2022/02/25 05:37:37;;;;;;;18.92;3.25;;;3.60;99.90;;;;;;5042084;28;20063;-63
2022/02/25 05:40:05;;;;;;;14.63;3.40;;;3.70;99.90;;;;;;5046355;28;20025;-58
2022/02/25 05:42:30;;;;;;;18.27;3.47;;;3.60;99.90;;;;;;5042842;28;20033;-61
2022/02/25 05:44:57;;;;;;;20.63;4.82;;;3.70;99.90;;;;;;5047917;28;20033;-58
2022/02/25 05:47:22;;;;;;;16.20;3.40;;;3.70;99.90;;;;;;5048363;28;20108;-58
2022/02/25 05:49:48;;;;;;;24.83;5.00;;;3.70;99.90;;;;;;5047622;28;20147;-56
2022/02/25 05:52:14;;;;;;;21.38;3.65;;;3.70;99.90;;;;;;5049924;28;20060;-55
2022/02/25 05:54:39;;;;;;;22.83;4.05;;;3.70;99.90;;;;;;5043901;28;20087;-56
2022/02/25 05:57:05;;;;;;;26.10;4.43;;;3.70;99.90;;;;;;5049695;28;20075;-55
2022/02/25 05:59:30;;;;;;;21.75;4.60;;;3.70;99.90;;;;;;5040927;28;20052;-57
2022/02/25 06:01:56;;;;;;;19.02;4.18;;;3.80;99.90;;;;;;5049775;28;20025;-56
2022/02/25 06:04:22;;;;;;;25.10;4.43;;;3.80;99.90;;;;;;5041910;28;20125;-58
2022/02/25 06:06:47;;;;;;;15.40;3.50;;;3.80;99.90;;;;;;5048260;28;20490;-57
2022/02/25 06:09:13;;;;;;;19.83;3.45;;;3.70;99.90;;;;;;5050401;28;20044;-58
2022/02/25 06:11:39;;;;;;;14.93;3.58;;;3.80;99.90;;;;;;5048373;28;20033;-57
2022/02/25 06:14:04;;;;;;;15.32;3.85;;;3.80;99.90;;;;;;5050450;28;20497;-58
2022/02/25 06:16:30;;;;;;;15.70;3.15;;;3.80;99.90;;;;;;5048252;28;20483;-54
2022/02/25 06:18:56;;;;;;;20.08;4.10;;;3.80;99.90;;;;;;5040916;28;20737;-54
2022/02/25 06:21:21;;;;;;;15.07;3.30;;;3.80;99.90;;;;;;5031301;28;20028;-55
2022/02/25 06:23:47;;;;;;;18.27;3.70;;;3.70;99.90;;;;;;5047479;28;20479;-54
2022/02/25 06:26:12;;;;;;;18.30;3.67;;;3.80;99.90;;;;;;5044919;28;20111;-53
2022/02/25 06:28:38;;;;;;;19.65;3.55;;;3.70;99.90;;;;;;5050305;28;20033;-58
2022/02/25 06:31:04;;;;;;;20.30;3.00;;;3.70;99.90;;;;;;5048517;28;20083;-53
2022/02/25 06:33:29;;;;;;;19.70;4.43;;;3.70;99.90;;;;;;5050134;28;20040;-53
2022/02/25 06:35:55;;;;;;;20.05;4.03;;;3.70;99.90;;;;;;5047885;28;20094;-58
2022/02/25 06:38:20;;;;;;;15.18;4.43;;;3.70;99.90;;;;;;5042649;28;20029;-58
2022/02/25 06:40:46;;;;;;;29.35;4.68;;;3.70;99.90;;;;;;5049298;28;20025;-58
2022/02/25 06:43:12;;;;;;;16.52;3.65;;;3.70;99.90;;;;;;5042847;28;20449;-53
2022/02/25 06:45:37;;;;;;;30.77;5.45;;;3.70;99.90;;;;;;5046447;28;20033;-58
2022/02/25 06:48:03;;;;;;;19.80;4.28;;;3.70;99.90;;;;;;5048829;28;20475;-58
2022/02/25 06:50:29;;;;;;;24.38;4.63;;;3.80;99.90;;;;;;5049432;28;20025;-59
2022/02/25 06:52:55;;;;;;;27.25;4.68;;;3.80;99.90;;;;;;5045932;28;20140;-58
2022/02/25 06:55:21;;;;;;;24.08;5.40;;;3.80;99.90;;;;;;5047403;28;20028;-59
2022/02/25 06:57:47;;;;;;;24.60;5.40;;;3.80;99.90;;;;;;5049218;28;20084;-57
2022/02/25 07:00:17;;;;;;;22.65;5.35;;;3.90;99.90;;;;;;5048496;28;20053;-56
2022/02/25 07:02:43;;;;;;;21.00;4.68;;;4.00;99.90;;;;;;5049343;28;20454;-59
2022/02/25 07:05:09;;;;;;;19.42;5.25;;;4.00;99.90;;;;;;5042643;28;20053;-60
2022/02/25 07:07:34;;;;;;;17.23;3.88;;;4.00;99.90;;;;;;5045080;28;20166;-58
2022/02/25 07:10:00;;;;;;;29.27;5.38;;;4.00;99.90;;;;;;5048486;28;20032;-58
2022/02/25 07:12:26;;;;;;;20.08;4.50;;;4.00;99.90;;;;;;5049043;28;20032;-56
2022/02/25 07:14:52;;;;;;;23.70;5.88;;;4.00;99.90;;;;;;5047398;28;20105;-58
2022/02/25 07:17:17;;;;;;;25.05;5.07;;;4.00;99.90;;;;;;5043816;28;20033;-56
2022/02/25 07:19:43;;;;;;;26.65;5.10;;;3.90;99.90;;;;;;5049091;28;20093;-59
2022/02/25 07:22:09;;;;;;;27.33;4.90;;;4.00;99.90;;;;;;5048102;28;20050;-58
2022/02/25 07:24:34;;;;;;;19.40;4.05;;;3.90;99.90;;;;;;5048723;28;20386;-60
2022/02/25 07:27:00;;;;;;;24.88;4.53;;;4.00;99.90;;;;;;5042977;28;20036;-68
2022/02/25 07:29:25;;;;;;;24.92;4.43;;;4.10;99.90;;;;;;5047862;28;20025;-63
2022/02/25 07:31:51;;;;;;;20.83;4.60;;;4.20;99.90;;;;;;5047973;28;20475;-63
2022/02/25 07:34:17;;;;;;;21.30;4.80;;;4.30;99.90;;;;;;5046832;28;20056;-57
2022/02/25 07:36:42;;;;;;;26.63;4.93;;;4.30;99.90;;;;;;5030134;28;20025;-62
2022/02/25 07:39:08;;;;;;;26.38;4.70;;;4.40;99.90;;;;;;5046814;28;20021;-57
2022/02/25 07:41:34;;;;;;;27.27;4.53;;;4.40;99.90;;;;;;5048937;28;20028;-62
2022/02/25 07:43:59;;;;;;;22.90;4.03;;;4.40;99.90;;;;;;5046027;28;20032;-64
2022/02/25 07:46:25;;;;;;;23.73;4.47;;;4.40;99.90;;;;;;5028617;28;20029;-65
2022/02/25 07:48:51;;;;;;;18.58;4.82;;;4.50;99.90;;;;;;5043589;28;20426;-63
2022/02/25 07:51:16;;;;;;;21.48;4.53;;;4.50;99.90;;;;;;5040058;28;20475;-63
2022/02/25 07:53:44;;;;;;;26.75;4.00;;;4.60;99.90;;;;;;5047846;28;20552;-63
2022/02/25 07:56:11;;;;;;;34.47;4.63;;;4.60;99.90;;;;;;5044547;28;20175;-64
2022/02/25 07:58:36;;;;;;;18.88;4.13;;;4.70;99.90;;;;;;5047662;28;20548;-63
2022/02/25 08:01:02;;;;;;;18.30;4.05;;;4.80;99.90;;;;;;5044818;28;20030;-63
2022/02/25 08:03:28;;;;;;;16.75;4.32;;;4.80;99.90;;;;;;5027059;28;20033;-65
2022/02/25 08:05:54;;;;;;;24.88;4.65;;;4.70;99.90;;;;;;5042554;28;20063;-64
2022/02/25 08:08:20;;;;;;;18.90;5.85;;;4.60;99.90;;;;;;5050021;28;20043;-63
2022/02/25 08:10:47;;;;;;;23.00;4.75;;;4.60;99.90;;;;;;5041911;28;20056;-63
2022/02/25 08:13:12;;;;;;;17.92;4.90;;;4.50;99.90;;;;;;5044193;28;20100;-63
2022/02/25 08:15:38;;;;;;;22.58;4.68;;;4.50;99.90;;;;;;5044967;28;20124;-62
2022/02/25 08:18:06;;;;;;;26.67;5.00;;;4.40;99.90;;;;;;5051730;28;20025;-63
2022/02/25 08:20:36;;;;;;;20.02;4.68;;;4.30;99.90;;;;;;5056888;28;20029;-63
2022/02/25 08:23:02;;;;;;;24.42;4.95;;;4.20;99.90;;;;;;5040884;28;20028;-63
2022/02/25 08:25:33;;;;;;;19.02;5.70;;;4.20;99.90;;;;;;5044537;28;20028;-66
2022/02/25 08:27:59;;;;;;;33.23;5.77;;;4.20;99.90;;;;;;5050732;28;20033;-63
2022/02/25 08:30:25;;;;;;;30.67;5.95;;;4.20;99.90;;;;;;5044803;28;20295;-65
2022/02/25 08:32:51;;;;;;;28.23;6.20;;;4.20;99.90;;;;;;5050610;28;20525;-63
2022/02/25 08:35:19;;;;;;;24.92;6.72;;;4.10;99.90;;;;;;5044932;28;20139;-63
2022/02/25 08:37:46;;;;;;;25.15;6.70;;;4.10;99.90;;;;;;5048337;28;20033;-65
2022/02/25 08:40:13;;;;;;;35.58;7.53;;;4.10;99.90;;;;;;5052088;28;20554;-66
2022/02/25 08:42:40;;;;;;;27.60;6.53;;;4.10;99.90;;;;;;5050673;28;20041;-64
2022/02/25 08:45:07;;;;;;;29.90;8.20;;;4.10;99.90;;;;;;5051042;28;20040;-65
2022/02/25 08:47:33;;;;;;;39.53;8.55;;;4.10;99.90;;;;;;5050016;28;20126;-63
2022/02/25 08:49:58;;;;;;;31.10;7.22;;;4.00;99.90;;;;;;5043218;28;20482;-64
2022/02/25 08:52:24;;;;;;;29.70;8.15;;;4.00;99.90;;;;;;5041964;28;20033;-61
2022/02/25 08:54:50;;;;;;;29.33;8.63;;;4.00;99.90;;;;;;5042937;28;20207;-65
2022/02/25 08:57:16;;;;;;;29.77;8.02;;;4.00;99.90;;;;;;5044005;28;20125;-63
2022/02/25 08:59:42;;;;;;;23.20;7.95;;;4.00;99.90;;;;;;5015080;28;20029;-62
2022/02/25 09:02:09;;;;;;;26.25;7.45;;;4.00;99.90;;;;;;5038754;28;20037;-65
2022/02/25 09:04:35;;;;;;;39.10;8.65;;;4.00;99.90;;;;;;5037847;28;20067;-64
2022/02/25 09:07:00;;;;;;;22.77;7.93;;;4.00;99.90;;;;;;5050739;28;20488;-65
2022/02/25 09:09:26;;;;;;;28.73;9.45;;;4.00;99.90;;;;;;5050680;28;20040;-66
2022/02/25 09:11:52;;;;;;;27.20;8.15;;;4.00;99.90;;;;;;5047973;28;20032;-63
2022/02/25 09:14:17;;;;;;;24.88;7.47;;;4.00;99.90;;;;;;5043010;28;20033;-63
2022/02/25 09:16:43;;;;;;;18.23;6.38;;;3.90;99.90;;;;;;5040532;28;20036;-63
2022/02/25 09:19:09;;;;;;;32.40;9.15;;;3.90;99.90;;;;;;5030173;28;20455;-63
2022/02/25 09:21:35;;;;;;;22.25;8.20;;;3.90;99.90;;;;;;5015539;28;20075;-62
2022/02/25 09:24:02;;;;;;;24.63;7.93;;;4.00;99.90;;;;;;5042682;28;20087;-62
2022/02/25 09:26:28;;;;;;;25.88;7.35;;;4.10;99.90;;;;;;5051692;28;20090;-61
2022/02/25 09:28:53;;;;;;;26.98;8.20;;;4.20;99.90;;;;;;5046328;28;20029;-62
2022/02/25 09:31:19;;;;;;;25.48;7.22;;;4.30;99.90;;;;;;5044248;28;20439;-61
2022/02/25 09:33:45;;;;;;;28.90;7.60;;;4.40;99.90;;;;;;5043478;28;20029;-60
2022/02/25 09:36:11;;;;;;;21.35;7.50;;;4.50;99.90;;;;;;5010924;28;20487;-61
2022/02/25 09:38:36;;;;;;;20.77;7.25;;;4.40;99.90;;;;;;5022440;28;20368;-63
2022/02/25 09:41:04;;;;;;;20.35;6.40;;;4.40;99.90;;;;;;5045658;28;20487;-61
2022/02/25 09:43:31;;;;;;;18.80;6.57;;;4.50;99.90;;;;;;5045648;28;20312;-61
2022/02/25 09:45:57;;;;;;;21.73;7.28;;;4.60;99.90;;;;;;5045679;28;20038;-60
2022/02/25 09:48:22;;;;;;;26.38;7.32;;;4.50;99.90;;;;;;5044182;28;20324;-62
2022/02/25 09:50:51;;;;;;;21.67;6.93;;;4.50;99.90;;;;;;5048836;28;20115;-61
2022/02/25 09:53:18;;;;;;;20.02;6.60;;;4.40;99.90;;;;;;5044294;28;20028;-62
2022/02/25 09:55:44;;;;;;;22.63;8.63;;;4.40;99.90;;;;;;5046293;28;20158;-60
2022/02/25 09:58:10;;;;;;;31.95;7.85;;;4.40;99.90;;;;;;5050403;28;20017;-62
2022/02/25 10:00:39;;;;;;;21.40;7.63;;;4.30;99.90;;;;;;5048846;28;20040;-61
2022/02/25 10:03:07;;;;;;;29.05;8.52;;;4.30;99.90;;;;;;5042481;28;20025;-61
2022/02/25 10:05:34;;;;;;;32.92;8.68;;;4.40;99.90;;;;;;5040138;28;20040;-59
2022/02/25 10:08:12;;;;;;;30.73;8.25;;;4.50;99.90;;;;;;5049744;28;20078;-61
2022/02/25 10:10:44;;;;;;;23.52;8.18;;;4.60;99.90;;;;;;5048865;28;20052;-59
2022/02/25 10:13:11;;;;;;;24.92;8.98;;;4.60;99.90;;;;;;5050160;28;20033;-59
2022/02/25 10:15:39;;;;;;;25.92;8.57;;;4.70;99.90;;;;;;5030297;28;20067;-60
2022/02/25 10:18:26;;;;;;;24.25;8.32;;;4.60;99.90;;;;;;5048943;28;20506;-60
2022/02/25 10:21:11;;;;;;;27.95;8.90;;;4.40;99.90;;;;;;5041361;28;20054;-60
2022/02/25 10:23:45;;;;;;;40.80;9.95;;;4.40;99.90;;;;;;5048505;28;20081;-59
2022/02/25 10:26:11;;;;;;;22.00;9.15;;;4.20;99.90;;;;;;5049500;28;20028;-63
2022/02/25 10:28:38;;;;;;;31.45;11.10;;;4.10;99.90;;;;;;5029807;28;20033;-63
2022/02/25 10:31:26;;;;;;;35.95;10.48;;;4.00;99.90;;;;;;5046716;28;20099;-63
2022/02/25 10:34:16;;;;;;;38.25;12.48;;;3.80;99.90;;;;;;5039766;28;20037;-63
2022/02/25 10:36:47;;;;;;;35.75;10.65;;;3.70;99.90;;;;;;5048900;28;20032;-65
2022/02/25 10:39:22;;;;;;;34.55;11.45;;;3.60;99.90;;;;;;5049694;28;20028;-64
2022/02/25 10:42:01;;;;;;;32.15;10.82;;;3.50;99.90;;;;;;5048120;28;20561;-64
2022/02/25 10:44:43;;;;;;;29.25;11.00;;;3.40;99.90;;;;;;5047937;28;20024;-63
2022/02/25 10:47:21;;;;;;;27.13;10.40;;;3.50;99.90;;;;;;5029885;28;20025;-63
2022/02/25 10:49:49;;;;;;;33.42;11.25;;;3.60;99.90;;;;;;5048525;28;20021;-63
2022/02/25 10:52:20;;;;;;;30.45;10.85;;;3.70;99.90;;;;;;5048493;28;20120;-63
2022/02/25 10:54:46;;;;;;;26.77;9.93;;;3.80;99.90;;;;;;5048719;28;20044;-62
2022/02/25 10:57:14;;;;;;;23.35;9.27;;;3.90;99.90;;;;;;5047440;28;20491;-63
2022/02/25 10:59:44;;;;;;;28.48;9.32;;;3.90;99.90;;;;;;5048847;28;20479;-61
2022/02/25 11:02:31;;;;;;;28.92;9.00;;;3.90;99.90;;;;;;5046670;28;20123;-63
2022/02/25 11:05:12;;;;;;;27.80;9.07;;;4.00;99.90;;;;;;5030499;28;20057;-62
2022/02/25 11:07:40;;;;;;;30.45;8.20;;;4.10;99.90;;;;;;5045838;28;20123;-62
2022/02/25 11:10:06;;;;;;;29.50;8.05;;;4.10;99.90;;;;;;5041755;28;20017;-62
2022/02/25 11:12:35;;;;;;;21.10;7.25;;;4.10;99.90;;;;;;5046261;28;20108;-59
2022/02/25 11:15:01;;;;;;;29.10;7.90;;;4.10;99.90;;;;;;5048586;28;20025;-60
2022/02/25 11:17:28;;;;;;;24.75;7.55;;;4.20;99.90;;;;;;5044432;28;20052;-58
2022/02/25 11:19:58;;;;;;;28.63;7.28;;;4.30;99.90;;;;;;5040843;28;20029;-59
2022/02/25 11:22:25;;;;;;;19.33;5.32;;;4.30;99.90;;;;;;5048111;28;20025;-62
2022/02/25 11:24:52;;;;;;;23.67;6.13;;;4.30;99.90;;;;;;5048132;28;20037;-63
2022/02/25 11:27:19;;;;;;;20.98;5.72;;;4.40;99.90;;;;;;5037521;28;20394;-58
2022/02/25 11:30:00;;;;;;;20.40;5.68;;;4.40;99.90;;;;;;5048415;28;20025;-62
2022/02/25 11:32:35;;;;;;;24.45;5.20;;;4.50;99.90;;;;;;5019443;28;20029;-62
2022/02/25 11:35:11;;;;;;;24.52;6.32;;;4.70;99.90;;;;;;5047141;28;20496;-58
2022/02/25 11:37:48;;;;;;;23.85;5.63;;;4.90;99.90;;;;;;5040026;28;20112;-59
2022/02/25 11:40:15;;;;;;;15.27;4.55;;;5.10;99.90;;;;;;5045668;28;20044;-58
2022/02/25 11:42:40;;;;;;;20.83;5.50;;;5.20;99.90;;;;;;5037521;28;20030;-58
2022/02/25 11:45:24;;;;;;;20.02;5.80;;;5.30;99.90;;;;;;5050656;28;20033;-60
2022/02/25 11:47:56;;;;;;;22.77;4.90;;;5.70;99.90;;;;;;5049659;28;20021;-59
2022/02/25 11:50:38;;;;;;;24.13;5.30;;;5.80;99.90;;;;;;5048104;28;20041;-61
2022/02/25 11:53:24;;;;;;;;;;;5.90;99.90;;;;;;5050233;28;20552;-60
2022/02/25 11:55:51;;;;;;;20.25;4.10;;;5.90;99.90;;;;;;5047680;28;19916;-62
2022/02/25 11:58:39;;;;;;;15.30;3.83;;;6.10;99.90;;;;;;5051134;28;20087;-62
2022/02/25 12:01:11;;;;;;;14.85;3.63;;;6.30;99.90;;;;;;5050636;28;20052;-61
2022/02/25 12:04:07;;;;;;;11.85;3.00;;;6.40;99.90;;;;;;5031555;28;20025;-62
2022/02/25 12:06:55;;;;;;;14.30;3.35;;;6.20;99.90;;;;;;5042195;28;20041;-62
2022/02/25 12:09:39;;;;;;;25.45;3.33;;;6.20;99.90;;;;;;5046644;28;20064;-60
2022/02/25 12:12:23;;;;;;;13.48;3.28;;;6.10;99.90;;;;;;5043750;28;20391;-64
2022/02/25 12:15:07;;;;;;;21.83;3.80;;;6.30;99.90;;;;;;5048719;28;20487;-63
2022/02/25 12:17:54;;;;;;;14.60;2.65;;;6.40;99.90;;;;;;5046677;28;20037;-63
2022/02/25 12:20:24;;;;;;;13.80;3.05;;;6.40;99.90;;;;;;5039721;28;20331;-63
2022/02/25 12:23:00;;;;;;;21.02;4.43;;;6.10;99.90;;;;;;5050676;28;20025;-59
2022/02/25 12:25:38;;;;;;;18.20;3.60;;;5.90;99.90;;;;;;5045787;28;20101;-61
2022/02/25 12:28:22;;;;;;;21.85;4.55;;;5.60;99.90;;;;;;5047989;28;20029;-62
2022/02/25 12:30:55;;;;;;;17.05;3.88;;;5.40;99.90;;;;;;5051463;28;20849;-63
2022/02/25 12:33:45;;;;;;;19.67;3.10;;;5.20;99.90;;;;;;5043521;28;20489;-66
2022/02/25 12:36:28;;;;;;;14.45;2.03;;;4.90;99.90;;;;;;5031297;28;20039;-61
2022/02/25 12:39:07;;;;;;;14.05;1.95;;;4.70;99.90;;;;;;5042834;28;20037;-64
2022/02/25 12:41:44;;;;;;;13.32;2.25;;;4.70;99.90;;;;;;5051321;28;20040;-61
2022/02/25 12:44:19;;;;;;;10.50;2.67;;;4.70;99.90;;;;;;5044386;28;20116;-58
2022/02/25 12:46:48;;;;;;;15.88;2.85;;;4.70;99.90;;;;;;5050453;28;20032;-65
2022/02/25 12:49:18;;;;;;;6.82;1.95;;;4.70;99.90;;;;;;5051837;28;20024;-66
2022/02/25 12:51:44;;;;;;;9.43;1.75;;;4.50;99.90;;;;;;5032360;28;20061;-62
2022/02/25 12:54:17;;;;;;;7.90;1.52;;;4.40;99.90;;;;;;5043457;28;20017;-62
2022/02/25 12:56:47;;;;;;;8.75;2.78;;;4.20;99.90;;;;;;5046378;28;20024;-61